sensor_id;sensor_type;location;lat;lon;timestamp;P1;durP1;ratioP1;P2;durP2;ratioP2
10845;SDS011;5476;51.540;7.186;2023-02-28T09:21:18;10.83;;;4.00;;
10845;SDS011;5476;51.540;7.186;2023-02-28T09:23:46;5.63;;;3.90;;
10845;SDS011;5476;51.540;7.186;2023-02-28T09:26:15;6.93;;;3.87;;
10845;SDS011;5476;51.540;7.186;2023-02-28T09:28:45;5.17;;;3.57;;
10845;SDS011;5476;51.540;7.186;2023-02-28T09:31:16;6.93;;;3.80;;
10845;SDS011;5476;51.540;7.186;2023-02-28T09:33:46;6.30;;;4.10;;
10845;SDS011;5476;51.540;7.186;2023-02-28T09:36:14;6.13;;;3.87;;
10845;SDS011;5476;51.540;7.186;2023-02-28T09:38:51;4.60;;;3.20;;
10845;SDS011;5476;51.540;7.186;2023-02-28T09:41:25;6.23;;;3.47;;
10845;SDS011;5476;51.540;7.186;2023-02-28T09:43:56;7.20;;;3.27;;
10845;SDS011;5476;51.540;7.186;2023-02-28T09:46:30;7.10;;;3.03;;
10845;SDS011;5476;51.540;7.186;2023-02-28T09:48:59;5.07;;;3.60;;
10845;SDS011;5476;51.540;7.186;2023-02-28T09:54:32;5.93;;;3.20;;
10845;SDS011;5476;51.540;7.186;2023-02-28T09:57:13;3.70;;;2.87;;
10845;SDS011;5476;51.540;7.186;2023-02-28T10:00:03;3.47;;;2.30;;
10845;SDS011;5476;51.540;7.186;2023-02-28T12:15:16;3.25;;;2.47;;
10845;SDS011;5476;51.540;7.186;2023-02-28T12:17:48;3.85;;;2.10;;
10845;SDS011;5476;51.540;7.186;2023-02-28T12:20:23;3.13;;;2.20;;
10845;SDS011;5476;51.540;7.186;2023-02-28T12:23:00;2.92;;;2.22;;
10845;SDS011;5476;51.540;7.186;2023-02-28T12:25:47;2.67;;;1.92;;
10845;SDS011;5476;51.540;7.186;2023-02-28T12:28:21;3.53;;;2.30;;
10845;SDS011;5476;51.540;7.186;2023-02-28T12:30:53;3.05;;;2.22;;
10845;SDS011;5476;51.540;7.186;2023-02-28T12:33:24;3.20;;;2.40;;
10845;SDS011;5476;51.540;7.186;2023-02-28T12:35:56;3.10;;;2.23;;
10845;SDS011;5476;51.540;7.186;2023-02-28T12:38:25;3.43;;;2.37;;
10845;SDS011;5476;51.540;7.186;2023-02-28T12:40:56;3.03;;;2.60;;
10845;SDS011;5476;51.540;7.186;2023-02-28T12:43:28;2.70;;;2.50;;
10845;SDS011;5476;51.540;7.186;2023-02-28T12:46:02;3.00;;;2.70;;
10845;SDS011;5476;51.540;7.186;2023-02-28T12:48:37;7.97;;;4.47;;
10845;SDS011;5476;51.540;7.186;2023-02-28T12:51:05;2.80;;;2.57;;
10845;SDS011;5476;51.540;7.186;2023-02-28T12:53:53;3.77;;;2.70;;
10845;SDS011;5476;51.540;7.186;2023-02-28T12:56:24;4.43;;;2.70;;
10845;SDS011;5476;51.540;7.186;2023-02-28T12:58:58;3.53;;;2.50;;
10845;SDS011;5476;51.540;7.186;2023-02-28T13:01:34;3.00;;;2.73;;
10845;SDS011;5476;51.540;7.186;2023-02-28T13:04:13;3.40;;;2.80;;
10845;SDS011;5476;51.540;7.186;2023-02-28T13:10:39;2.90;;;2.70;;
10845;SDS011;5476;51.540;7.186;2023-02-28T13:13:11;2.60;;;2.40;;
10845;SDS011;5476;51.540;7.186;2023-02-28T13:15:40;3.00;;;2.33;;
10845;SDS011;5476;51.540;7.186;2023-02-28T13:18:20;3.23;;;2.97;;
10845;SDS011;5476;51.540;7.186;2023-02-28T13:20:54;3.30;;;2.80;;
10845;SDS011;5476;51.540;7.186;2023-02-28T13:29:34;3.60;;;2.30;;
10845;SDS011;5476;51.540;7.186;2023-02-28T13:32:19;2.60;;;2.40;;
10845;SDS011;5476;51.540;7.186;2023-02-28T13:35:11;5.03;;;2.55;;
10845;SDS011;5476;51.540;7.186;2023-02-28T13:37:36;2.60;;;2.40;;
10845;SDS011;5476;51.540;7.186;2023-02-28T13:42:49;2.90;;;2.67;;
10845;SDS011;5476;51.540;7.186;2023-02-28T13:45:21;2.70;;;2.37;;
10845;SDS011;5476;51.540;7.186;2023-02-28T13:47:52;3.42;;;2.45;;
10845;SDS011;5476;51.540;7.186;2023-02-28T13:50:26;3.10;;;2.80;;
10845;SDS011;5476;51.540;7.186;2023-02-28T13:53:07;4.03;;;2.85;;
10845;SDS011;5476;51.540;7.186;2023-02-28T13:55:42;3.37;;;2.90;;
10845;SDS011;5476;51.540;7.186;2023-02-28T13:58:20;4.13;;;2.72;;
10845;SDS011;5476;51.540;7.186;2023-02-28T14:01:00;3.45;;;2.60;;
10845;SDS011;5476;51.540;7.186;2023-02-28T14:06:21;3.15;;;2.63;;
10845;SDS011;5476;51.540;7.186;2023-02-28T14:08:54;3.28;;;2.75;;
10845;SDS011;5476;51.540;7.186;2023-02-28T14:11:26;3.88;;;2.88;;
10845;SDS011;5476;51.540;7.186;2023-02-28T14:13:53;4.97;;;3.38;;
10845;SDS011;5476;51.540;7.186;2023-02-28T14:16:21;5.75;;;3.10;;
10845;SDS011;5476;51.540;7.186;2023-02-28T14:18:54;3.20;;;2.90;;
10845;SDS011;5476;51.540;7.186;2023-02-28T14:21:24;4.93;;;3.20;;
10845;SDS011;5476;51.540;7.186;2023-02-28T14:29:38;3.45;;;2.95;;
10845;SDS011;5476;51.540;7.186;2023-02-28T14:32:21;5.00;;;4.15;;
10845;SDS011;5476;51.540;7.186;2023-02-28T14:34:53;3.50;;;3.13;;
10845;SDS011;5476;51.540;7.186;2023-02-28T14:37:27;3.40;;;3.10;;
10845;SDS011;5476;51.540;7.186;2023-02-28T14:39:56;4.93;;;3.77;;
10845;SDS011;5476;51.540;7.186;2023-02-28T14:42:29;3.47;;;3.00;;
10845;SDS011;5476;51.540;7.186;2023-02-28T14:45:01;3.57;;;2.73;;
10845;SDS011;5476;51.540;7.186;2023-02-28T14:47:34;3.87;;;3.13;;
10845;SDS011;5476;51.540;7.186;2023-02-28T15:06:12;5.10;;;2.77;;
10845;SDS011;5476;51.540;7.186;2023-02-28T15:08:42;3.07;;;2.50;;
10845;SDS011;5476;51.540;7.186;2023-02-28T15:11:32;3.77;;;2.83;;
10845;SDS011;5476;51.540;7.186;2023-02-28T15:17:46;4.27;;;3.30;;
10845;SDS011;5476;51.540;7.186;2023-02-28T15:20:30;3.37;;;2.73;;
10845;SDS011;5476;51.540;7.186;2023-02-28T17:48:42;8.50;;;6.37;;
10845;SDS011;5476;51.540;7.186;2023-02-28T17:51:24;10.23;;;6.40;;
10845;SDS011;5476;51.540;7.186;2023-02-28T17:53:51;13.00;;;7.00;;
10845;SDS011;5476;51.540;7.186;2023-02-28T17:56:21;11.57;;;8.03;;
10845;SDS011;5476;51.540;7.186;2023-02-28T17:58:52;14.40;;;9.83;;
10845;SDS011;5476;51.540;7.186;2023-02-28T18:01:19;35.10;;;18.80;;
10845;SDS011;5476;51.540;7.186;2023-02-28T18:03:49;32.10;;;17.93;;
10845;SDS011;5476;51.540;7.186;2023-02-28T18:06:19;21.33;;;11.67;;
10845;SDS011;5476;51.540;7.186;2023-02-28T18:08:48;16.37;;;9.07;;
10845;SDS011;5476;51.540;7.186;2023-02-28T18:11:16;11.30;;;7.60;;
10845;SDS011;5476;51.540;7.186;2023-02-28T18:13:44;12.07;;;7.87;;
10845;SDS011;5476;51.540;7.186;2023-02-28T18:16:14;10.77;;;8.33;;
10845;SDS011;5476;51.540;7.186;2023-02-28T18:18:42;13.37;;;9.70;;
10845;SDS011;5476;51.540;7.186;2023-02-28T18:21:15;12.60;;;8.70;;
10845;SDS011;5476;51.540;7.186;2023-02-28T18:23:43;11.50;;;8.30;;
10845;SDS011;5476;51.540;7.186;2023-02-28T18:26:13;9.20;;;8.17;;
10845;SDS011;5476;51.540;7.186;2023-02-28T18:28:40;9.60;;;7.20;;
10845;SDS011;5476;51.540;7.186;2023-02-28T18:31:09;10.90;;;7.63;;
10845;SDS011;5476;51.540;7.186;2023-02-28T18:33:37;12.33;;;6.77;;
10845;SDS011;5476;51.540;7.186;2023-02-28T18:36:05;12.30;;;7.73;;
10845;SDS011;5476;51.540;7.186;2023-02-28T18:38:35;13.93;;;9.83;;
10845;SDS011;5476;51.540;7.186;2023-02-28T18:41:03;11.87;;;8.87;;
10845;SDS011;5476;51.540;7.186;2023-02-28T18:43:35;10.43;;;8.90;;
10845;SDS011;5476;51.540;7.186;2023-02-28T18:46:04;10.97;;;8.03;;
10845;SDS011;5476;51.540;7.186;2023-02-28T18:48:31;10.03;;;8.73;;
10845;SDS011;5476;51.540;7.186;2023-02-28T18:51:07;8.87;;;7.10;;
10845;SDS011;5476;51.540;7.186;2023-02-28T18:53:39;9.53;;;6.60;;
10845;SDS011;5476;51.540;7.186;2023-02-28T18:56:07;14.97;;;9.53;;
10845;SDS011;5476;51.540;7.186;2023-02-28T18:58:35;8.93;;;6.07;;
10845;SDS011;5476;51.540;7.186;2023-02-28T19:01:03;10.40;;;6.33;;
10845;SDS011;5476;51.540;7.186;2023-02-28T19:03:32;9.07;;;5.70;;
10845;SDS011;5476;51.540;7.186;2023-02-28T19:06:00;16.93;;;11.73;;
10845;SDS011;5476;51.540;7.186;2023-02-28T19:08:28;15.33;;;10.40;;
10845;SDS011;5476;51.540;7.186;2023-02-28T19:10:57;14.83;;;10.10;;
10845;SDS011;5476;51.540;7.186;2023-02-28T19:13:24;13.03;;;9.10;;
10845;SDS011;5476;51.540;7.186;2023-02-28T19:15:52;14.07;;;9.73;;
10845;SDS011;5476;51.540;7.186;2023-02-28T19:18:29;13.13;;;8.60;;
10845;SDS011;5476;51.540;7.186;2023-02-28T19:20:59;10.63;;;7.43;;
10845;SDS011;5476;51.540;7.186;2023-02-28T19:29:28;12.20;;;8.97;;
10845;SDS011;5476;51.540;7.186;2023-02-28T20:04:17;17.83;;;11.30;;
10845;SDS011;5476;51.540;7.186;2023-02-28T20:09:21;20.77;;;11.87;;
10845;SDS011;5476;51.540;7.186;2023-02-28T20:11:49;18.10;;;11.77;;
10845;SDS011;5476;51.540;7.186;2023-02-28T20:14:29;17.73;;;10.77;;
10845;SDS011;5476;51.540;7.186;2023-02-28T20:17:13;15.47;;;9.93;;
10845;SDS011;5476;51.540;7.186;2023-02-28T20:19:54;12.33;;;8.27;;
10845;SDS011;5476;51.540;7.186;2023-02-28T20:22:22;11.57;;;7.93;;
10845;SDS011;5476;51.540;7.186;2023-02-28T21:13:13;12.43;;;8.17;;
10845;SDS011;5476;51.540;7.186;2023-02-28T21:47:06;26.60;;;12.63;;
10845;SDS011;5476;51.540;7.186;2023-02-28T21:49:51;18.27;;;9.77;;
10845;SDS011;5476;51.540;7.186;2023-02-28T21:52:33;14.97;;;9.60;;
10845;SDS011;5476;51.540;7.186;2023-02-28T21:57:45;16.23;;;9.30;;
10845;SDS011;5476;51.540;7.186;2023-02-28T22:00:41;13.13;;;8.80;;
10845;SDS011;5476;51.540;7.186;2023-02-28T22:24:26;9.63;;;7.33;;
10845;SDS011;5476;51.540;7.186;2023-02-28T22:32:48;9.13;;;7.10;;
10845;SDS011;5476;51.540;7.186;2023-02-28T22:38:21;9.93;;;7.00;;
